createdAt,value
2022-09-06T00:00:17.924Z,9.65
2022-09-06T00:02:47.202Z,10.05
2022-09-06T00:05:16.654Z,9.98
2022-09-06T00:07:44.711Z,10.57
2022-09-06T00:10:12.819Z,8.80
2022-09-06T00:12:41.249Z,8.88
2022-09-06T00:15:10.263Z,8.57
2022-09-06T00:17:38.443Z,7.40
2022-09-06T00:20:09.310Z,6.82
2022-09-06T00:22:39.218Z,6.80
2022-09-06T00:25:08.377Z,6.53
2022-09-06T00:27:36.645Z,6.95
2022-09-06T00:30:06.017Z,6.32
2022-09-06T00:32:34.182Z,5.28
2022-09-06T00:35:02.183Z,5.50
2022-09-06T00:37:32.059Z,4.97
2022-09-06T00:40:01.525Z,4.70
2022-09-06T00:42:29.563Z,4.30
2022-09-06T00:44:59.794Z,4.15
2022-09-06T00:47:28.658Z,3.30
2022-09-06T00:50:00.390Z,4.40
2022-09-06T00:52:30.066Z,4.22
2022-09-06T00:55:00.841Z,3.72
2022-09-06T00:57:32.178Z,3.22
2022-09-06T01:00:01.672Z,3.40
2022-09-06T01:02:29.769Z,3.47
2022-09-06T01:04:58.474Z,3.60
2022-09-06T01:07:36.458Z,3.40
2022-09-06T01:10:33.219Z,3.17
2022-09-06T01:13:13.606Z,3.80
2022-09-06T01:15:54.244Z,3.60
2022-09-06T01:18:34.472Z,3.58
2022-09-06T01:21:14.654Z,3.40
2022-09-06T01:24:19.806Z,3.53
2022-09-06T01:27:13.838Z,3.53
2022-09-06T01:29:49.302Z,3.88
2022-09-06T01:32:26.274Z,3.90
2022-09-06T01:34:59.512Z,4.47
2022-09-06T01:37:27.538Z,3.85
2022-09-06T01:39:55.656Z,3.47
2022-09-06T01:42:27.331Z,3.42
2022-09-06T01:44:59.894Z,4.03
2022-09-06T01:47:39.720Z,3.58
2022-09-06T01:50:48.371Z,3.60
2022-09-06T01:53:29.122Z,3.70
2022-09-06T01:56:05.209Z,3.70
2022-09-06T01:58:47.255Z,3.17
2022-09-06T02:01:22.932Z,3.60
2022-09-06T02:04:00.714Z,3.30
2022-09-06T02:06:31.987Z,3.50
2022-09-06T02:09:05.615Z,3.50
2022-09-06T02:11:39.653Z,3.35
2022-09-06T02:14:12.153Z,3.17
2022-09-06T02:16:45.314Z,3.33
2022-09-06T02:19:18.894Z,3.70
2022-09-06T02:21:48.424Z,3.10
2022-09-06T02:24:22.505Z,2.92
2022-09-06T02:26:51.756Z,4.05
2022-09-06T02:29:20.041Z,3.33
2022-09-06T02:31:54.663Z,3.30
2022-09-06T02:34:23.305Z,2.95
2022-09-06T02:36:51.455Z,3.60
2022-09-06T02:39:25.229Z,3.13
2022-09-06T02:41:53.586Z,3.42
2022-09-06T02:44:21.723Z,3.00
2022-09-06T02:46:56.975Z,3.35
2022-09-06T02:49:27.070Z,3.38
2022-09-06T02:51:55.039Z,2.78
2022-09-06T02:54:23.042Z,3.28
2022-09-06T02:56:52.499Z,3.10
2022-09-06T02:59:20.725Z,3.00
2022-09-06T03:01:52.371Z,3.13
2022-09-06T03:04:20.764Z,3.15
2022-09-06T03:06:48.758Z,3.00
2022-09-06T03:09:16.765Z,3.30
2022-09-06T03:11:44.800Z,2.95
2022-09-06T03:14:12.788Z,2.50
2022-09-06T03:16:40.824Z,2.95
2022-09-06T03:19:10.218Z,2.60
2022-09-06T03:21:40.903Z,2.83
2022-09-06T03:24:08.914Z,2.80
2022-09-06T03:26:36.944Z,2.47
2022-09-06T03:29:04.975Z,2.67
2022-09-06T03:31:32.944Z,2.72
2022-09-06T03:34:00.966Z,2.60
2022-09-06T03:36:30.726Z,2.85
2022-09-06T03:38:59.029Z,2.97
2022-09-06T03:41:27.006Z,3.00
2022-09-06T03:43:57.719Z,2.55
2022-09-06T03:46:30.739Z,2.80
2022-09-06T03:49:01.952Z,2.63
2022-09-06T03:51:31.270Z,2.78
2022-09-06T03:53:59.295Z,2.95
2022-09-06T03:56:27.774Z,2.55
2022-09-06T03:58:57.600Z,2.72
2022-09-06T04:01:25.688Z,2.35
2022-09-06T04:03:53.829Z,2.60
2022-09-06T04:06:21.830Z,2.63
2022-09-06T04:08:51.186Z,2.60
2022-09-06T04:11:19.182Z,2.78
2022-09-06T04:13:47.223Z,2.42
2022-09-06T04:16:15.243Z,2.35
2022-09-06T04:18:43.534Z,2.55
2022-09-06T04:21:11.677Z,2.72
2022-09-06T04:23:40.156Z,2.53
2022-09-06T04:26:09.663Z,2.30
2022-09-06T04:28:37.652Z,2.55
2022-09-06T04:31:06.024Z,2.45
2022-09-06T04:33:35.818Z,2.53
2022-09-06T04:36:05.898Z,2.38
2022-09-06T04:38:37.197Z,2.28
2022-09-06T04:41:05.876Z,2.58
2022-09-06T04:43:35.229Z,2.05
2022-09-06T04:46:07.702Z,2.38
2022-09-06T04:48:35.801Z,2.45
2022-09-06T04:51:03.794Z,2.00
2022-09-06T04:53:31.798Z,2.10
2022-09-06T04:56:02.285Z,2.40
2022-09-06T04:58:30.284Z,2.30
2022-09-06T05:00:59.754Z,1.98
2022-09-06T05:03:30.567Z,1.90
2022-09-06T05:06:09.637Z,2.08
2022-09-06T05:08:39.203Z,2.22
2022-09-06T05:11:07.526Z,2.28
2022-09-06T05:13:36.238Z,2.05
2022-09-06T05:16:07.539Z,2.35
2022-09-06T05:18:36.360Z,2.30
2022-09-06T05:21:06.165Z,1.88
2022-09-06T05:23:34.399Z,2.20
2022-09-06T05:26:02.484Z,2.08
2022-09-06T05:28:30.489Z,2.63
2022-09-06T05:31:08.606Z,2.33
2022-09-06T05:33:36.719Z,2.30
2022-09-06T05:36:05.604Z,1.90
2022-09-06T05:38:33.976Z,2.42
2022-09-06T05:41:02.114Z,1.90
2022-09-06T05:43:30.113Z,2.10
2022-09-06T05:45:58.205Z,2.08
2022-09-06T05:48:27.824Z,1.95
2022-09-06T05:51:02.552Z,2.17
2022-09-06T05:53:35.747Z,1.80
2022-09-06T05:56:04.363Z,1.73
2022-09-06T05:58:32.632Z,1.60
2022-09-06T06:01:08.707Z,1.90
2022-09-06T06:03:38.916Z,1.88
2022-09-06T06:06:07.374Z,1.73
2022-09-06T06:08:36.846Z,1.77
2022-09-06T06:11:04.878Z,2.00
2022-09-06T06:13:35.029Z,1.80
2022-09-06T06:16:04.259Z,1.90
2022-09-06T06:18:32.416Z,3.25
2022-09-06T06:21:16.066Z,4.63
2022-09-06T06:23:45.502Z,4.43
2022-09-06T06:26:14.379Z,4.35
2022-09-06T06:28:42.436Z,4.20
2022-09-06T06:31:12.126Z,4.18
2022-09-06T06:33:40.618Z,4.45
2022-09-06T06:36:21.879Z,4.60
2022-09-06T06:38:53.296Z,5.22
2022-09-06T06:41:23.968Z,4.30
2022-09-06T06:43:53.501Z,4.18
2022-09-06T06:46:22.500Z,4.90
2022-09-06T06:48:54.654Z,5.45
2022-09-06T06:51:24.345Z,5.57
2022-09-06T06:53:54.118Z,5.05
2022-09-06T06:56:24.668Z,5.05
2022-09-06T06:58:54.604Z,5.05
2022-09-06T07:01:23.656Z,5.28
2022-09-06T07:03:52.061Z,5.03
2022-09-06T07:06:21.310Z,4.85
2022-09-06T07:08:49.562Z,5.53
2022-09-06T07:11:21.706Z,5.15
2022-09-06T07:13:52.698Z,4.32
2022-09-06T07:16:22.692Z,4.75
2022-09-06T07:18:53.186Z,4.88
2022-09-06T07:21:41.387Z,4.70
2022-09-06T07:24:10.148Z,3.72
2022-09-06T07:26:40.825Z,3.33
2022-09-06T07:29:09.354Z,3.40
2022-09-06T07:34:27.099Z,3.13
2022-09-06T07:36:55.883Z,3.47
2022-09-06T07:39:24.322Z,3.45
2022-09-06T07:41:53.773Z,3.00
2022-09-06T07:44:21.800Z,2.42
2022-09-06T07:46:52.631Z,3.10
2022-09-06T07:49:20.767Z,3.88
2022-09-06T07:51:48.941Z,4.03
2022-09-06T07:54:32.793Z,3.08
2022-09-06T07:57:02.164Z,3.30
2022-09-06T07:59:30.172Z,3.78
2022-09-06T08:01:58.235Z,3.67
2022-09-06T08:04:26.238Z,3.78
2022-09-06T08:09:42.307Z,3.60
2022-09-06T08:12:11.638Z,2.67
2022-09-06T08:14:39.711Z,2.65
2022-09-06T08:17:07.695Z,3.00
2022-09-06T08:19:35.665Z,2.58
2022-09-06T08:22:03.974Z,2.78
2022-09-06T08:24:35.635Z,3.35
2022-09-06T08:27:03.718Z,2.80
2022-09-06T08:29:33.084Z,2.92
2022-09-06T08:32:01.138Z,2.60
2022-09-06T08:34:29.309Z,2.70
2022-09-06T08:36:57.306Z,2.92
2022-09-06T08:39:26.049Z,2.47
2022-09-06T08:41:58.959Z,2.40
2022-09-06T08:47:21.012Z,2.53
2022-09-06T08:49:54.572Z,2.28
2022-09-06T08:53:13.190Z,2.00
2022-09-06T08:55:41.973Z,2.58
2022-09-06T08:58:24.839Z,2.05
2022-09-06T09:00:58.593Z,2.30
2022-09-06T09:03:33.580Z,2.42
2022-09-06T09:08:40.871Z,1.95
2022-09-06T09:11:12.494Z,2.10
2022-09-06T09:13:44.737Z,1.98
2022-09-06T09:16:14.600Z,1.92
2022-09-06T09:18:47.126Z,1.75
2022-09-06T09:21:16.908Z,2.20
2022-09-06T09:23:46.027Z,1.95
2022-09-06T09:26:16.364Z,1.80
2022-09-06T09:29:08.909Z,3.22
2022-09-06T09:31:39.569Z,1.67
2022-09-06T09:34:13.429Z,1.83
2022-09-06T09:39:36.882Z,1.88
2022-09-06T09:42:05.278Z,1.45
2022-09-06T09:44:34.210Z,1.70
2022-09-06T09:47:10.863Z,8.50
2022-09-06T09:49:40.206Z,37.15
2022-09-06T09:52:12.078Z,49.42
2022-09-06T09:54:44.247Z,63.92
2022-09-06T09:57:15.841Z,57.10
2022-09-06T09:59:45.823Z,52.63
2022-09-06T10:02:25.155Z,51.90
2022-09-06T10:05:01.390Z,43.88
2022-09-06T10:07:29.882Z,44.80
2022-09-06T10:10:04.834Z,42.55
2022-09-06T10:12:34.402Z,39.30
2022-09-06T10:15:06.857Z,38.50
2022-09-06T10:17:37.375Z,37.25
2022-09-06T10:20:09.953Z,34.35
2022-09-06T10:22:46.771Z,36.47
2022-09-06T10:25:39.206Z,36.28
2022-09-06T10:28:30.868Z,34.72
2022-09-06T10:31:11.295Z,26.75
2022-09-06T10:33:50.388Z,28.92
2022-09-06T10:36:22.381Z,28.90
2022-09-06T10:39:01.610Z,27.08
2022-09-06T10:42:02.396Z,26.10
2022-09-06T10:44:45.950Z,25.02
2022-09-06T10:47:16.235Z,23.90
2022-09-06T10:49:47.355Z,23.10
2022-09-06T10:52:21.775Z,21.52
2022-09-06T10:54:49.961Z,24.20
2022-09-06T11:00:13.519Z,19.48
2022-09-06T11:02:47.328Z,19.15
2022-09-06T11:11:07.253Z,16.25
2022-09-06T11:13:35.331Z,17.90
2022-09-06T11:16:09.483Z,16.08
2022-09-06T11:18:41.415Z,15.88
2022-09-06T11:21:45.901Z,15.02
2022-09-06T11:24:16.947Z,14.07
2022-09-06T11:26:46.790Z,13.90
2022-09-06T11:29:23.746Z,13.23
2022-09-06T11:34:51.664Z,13.70
2022-09-06T11:37:27.072Z,13.15
2022-09-06T11:43:14.478Z,12.68
2022-09-06T11:45:48.924Z,11.25
2022-09-06T11:48:36.454Z,11.63
2022-09-06T11:51:10.619Z,10.45
2022-09-06T11:54:06.030Z,13.50
2022-09-06T11:56:41.644Z,11.27
2022-09-06T11:59:23.566Z,11.30
2022-09-06T12:02:02.348Z,10.38
2022-09-06T12:05:09.315Z,10.45
2022-09-06T12:07:41.020Z,9.93
2022-09-06T12:10:42.145Z,11.70
2022-09-06T12:13:39.481Z,11.00
2022-09-06T12:16:08.685Z,10.77
2022-09-06T12:18:56.890Z,9.50
2022-09-06T12:21:52.138Z,9.38
2022-09-06T12:24:54.409Z,9.43
2022-09-06T12:27:24.401Z,9.95
2022-09-06T12:29:58.126Z,7.95
2022-09-06T12:32:36.094Z,8.23
2022-09-06T12:37:57.241Z,8.70
2022-09-06T12:40:27.942Z,7.70
2022-09-06T12:42:56.578Z,8.10
2022-09-06T12:45:27.673Z,8.25
2022-09-06T12:48:08.510Z,7.75
2022-09-06T12:50:36.936Z,7.25
2022-09-06T12:53:23.318Z,7.13
2022-09-06T12:56:05.120Z,7.13
2022-09-06T12:58:33.106Z,6.95
2022-09-06T13:01:09.801Z,6.32
2022-09-06T13:03:42.271Z,6.95
2022-09-06T13:06:16.410Z,6.15
2022-09-06T13:08:49.642Z,7.28
2022-09-06T13:11:24.156Z,6.70
2022-09-06T13:13:54.106Z,7.43
2022-09-06T13:16:26.872Z,6.80
2022-09-06T13:18:55.347Z,6.18
2022-09-06T13:21:34.101Z,6.72
2022-09-06T13:24:03.958Z,6.82
2022-09-06T13:26:36.883Z,5.80
2022-09-06T13:29:12.163Z,6.20
2022-09-06T13:31:46.822Z,5.90
2022-09-06T13:34:21.917Z,6.10
2022-09-06T13:36:52.348Z,5.65
2022-09-06T13:39:34.805Z,5.88
2022-09-06T13:42:07.388Z,5.43
2022-09-06T13:44:36.715Z,5.82
2022-09-06T13:47:06.821Z,5.40
2022-09-06T13:49:34.836Z,5.32
2022-09-06T13:52:05.240Z,5.32
2022-09-06T13:54:33.941Z,4.07
2022-09-06T13:57:02.597Z,4.95
2022-09-06T13:59:32.153Z,4.90
2022-09-06T14:02:06.925Z,4.93
2022-09-06T14:07:04.828Z,5.35
2022-09-06T14:09:33.249Z,5.22
2022-09-06T14:12:01.280Z,3.83
2022-09-06T14:14:29.767Z,4.97
2022-09-06T14:16:57.849Z,4.68
2022-09-06T14:19:27.614Z,4.68
2022-09-06T14:21:55.691Z,4.25
2022-09-06T14:24:23.761Z,3.70
2022-09-06T14:26:51.982Z,4.50
2022-09-06T14:29:19.941Z,4.25
2022-09-06T14:31:48.382Z,3.88
2022-09-06T14:34:16.608Z,4.30
2022-09-06T14:36:45.883Z,4.30
2022-09-06T14:39:13.946Z,4.75
2022-09-06T14:41:42.002Z,4.38
2022-09-06T14:44:10.711Z,3.67
2022-09-06T14:46:39.061Z,3.83
2022-09-06T14:49:10.068Z,4.28
2022-09-06T14:51:39.764Z,4.07
2022-09-06T14:54:11.508Z,3.60
2022-09-06T14:56:40.717Z,3.67
2022-09-06T14:59:09.323Z,3.67
2022-09-06T15:01:38.983Z,3.88
2022-09-06T15:04:09.214Z,4.00
2022-09-06T15:06:40.142Z,3.92
2022-09-06T15:09:11.397Z,3.50
2022-09-06T15:11:41.722Z,3.70
2022-09-06T15:14:14.176Z,3.67
2022-09-06T15:16:42.447Z,3.33
2022-09-06T15:19:10.598Z,3.00
2022-09-06T15:21:38.673Z,3.33
2022-09-06T15:24:11.567Z,3.20
2022-09-06T15:26:42.599Z,3.30
2022-09-06T15:29:11.645Z,3.58
2022-09-06T15:31:40.459Z,3.15
2022-09-06T15:34:08.978Z,3.70
2022-09-06T15:36:37.476Z,3.72
2022-09-06T15:39:06.868Z,3.00
2022-09-06T15:41:37.698Z,3.17
2022-09-06T15:44:10.611Z,2.40
2022-09-06T15:46:49.950Z,3.53
2022-09-06T15:49:20.330Z,3.00
2022-09-06T15:51:50.819Z,2.95
2022-09-06T15:54:40.452Z,2.67
2022-09-06T15:57:08.707Z,2.78
2022-09-06T15:59:38.142Z,3.13
2022-09-06T16:02:06.411Z,3.50
2022-09-06T16:04:34.448Z,2.55
2022-09-06T16:07:02.648Z,2.70
2022-09-06T16:09:31.227Z,2.83
2022-09-06T16:11:59.301Z,2.90
2022-09-06T16:14:28.121Z,2.78
2022-09-06T16:16:58.027Z,2.90
2022-09-06T16:19:26.936Z,3.22
2022-09-06T16:21:55.135Z,2.40
2022-09-06T16:24:23.595Z,2.45
2022-09-06T16:26:51.660Z,3.17
2022-09-06T16:29:20.289Z,2.97
2022-09-06T16:31:48.591Z,2.60
2022-09-06T16:34:18.244Z,2.83
2022-09-06T16:36:46.270Z,2.65
2022-09-06T16:39:14.349Z,2.75
2022-09-06T16:41:43.632Z,2.65
2022-09-06T16:44:16.179Z,2.97
2022-09-06T16:46:45.478Z,2.50
2022-09-06T16:49:13.583Z,2.65
2022-09-06T16:51:43.199Z,2.47
2022-09-06T16:54:11.270Z,2.60
2022-09-06T16:56:40.039Z,2.50
2022-09-06T16:59:09.381Z,2.50
2022-09-06T17:01:41.384Z,2.53
2022-09-06T17:04:10.075Z,2.47
2022-09-06T17:06:44.386Z,2.75
2022-09-06T17:09:15.854Z,2.25
2022-09-06T17:11:43.905Z,1.90
2022-09-06T17:14:12.227Z,2.33
2022-09-06T17:16:57.636Z,2.10
2022-09-06T17:19:25.897Z,2.28
2022-09-06T17:21:54.031Z,2.55
2022-09-06T17:24:23.434Z,2.53
2022-09-06T17:26:51.467Z,2.50
2022-09-06T17:29:19.683Z,1.88
2022-09-06T17:31:47.798Z,2.65
2022-09-06T17:34:16.604Z,2.47
2022-09-06T17:36:44.739Z,2.15
2022-09-06T17:39:14.910Z,2.30
2022-09-06T17:41:46.778Z,2.33
2022-09-06T17:44:17.932Z,2.22
2022-09-06T17:47:02.719Z,2.33
2022-09-06T17:49:34.776Z,2.10
2022-09-06T17:52:02.895Z,2.28
2022-09-06T17:54:31.769Z,1.77
2022-09-06T17:57:01.311Z,1.80
2022-09-06T17:59:34.254Z,2.30
2022-09-06T18:02:03.354Z,2.30
2022-09-06T18:04:31.476Z,2.20
2022-09-06T18:06:59.587Z,2.28
2022-09-06T18:09:27.729Z,2.22
2022-09-06T18:11:55.989Z,1.98
2022-09-06T18:14:25.748Z,2.22
2022-09-06T18:16:54.196Z,2.13
2022-09-06T18:19:23.169Z,1.58
2022-09-06T18:21:51.834Z,1.90
2022-09-06T18:24:20.216Z,1.90
2022-09-06T18:26:49.066Z,2.05
2022-09-06T18:29:18.401Z,2.15
2022-09-06T18:31:47.964Z,1.92
2022-09-06T18:34:16.924Z,2.00
2022-09-06T18:36:44.997Z,1.88
2022-09-06T18:39:13.328Z,2.53
2022-09-06T18:41:58.667Z,2.10
2022-09-06T18:44:32.329Z,2.20
2022-09-06T18:47:03.674Z,1.73
2022-09-06T18:49:32.491Z,2.00
2022-09-06T18:52:00.934Z,2.00
2022-09-06T18:54:29.218Z,2.10
2022-09-06T18:56:57.552Z,1.77
2022-09-06T18:59:25.670Z,1.83
2022-09-06T19:01:53.900Z,1.83
2022-09-06T19:04:23.441Z,1.75
2022-09-06T19:06:51.538Z,1.63
2022-09-06T19:09:19.664Z,1.77
2022-09-06T19:11:51.575Z,1.58
2022-09-06T19:14:20.083Z,1.85
2022-09-06T19:16:50.036Z,1.98
2022-09-06T19:19:18.375Z,2.15
2022-09-06T19:21:47.776Z,1.75
2022-09-06T19:24:16.277Z,2.03
2022-09-06T19:26:45.501Z,1.75
2022-09-06T19:29:15.434Z,1.55
2022-09-06T19:31:44.639Z,1.73
2022-09-06T19:34:15.273Z,1.85
2022-09-06T19:36:44.492Z,2.30
2022-09-06T19:39:15.407Z,1.48
2022-09-06T19:41:45.185Z,1.77
2022-09-06T19:44:13.722Z,2.00
2022-09-06T19:46:45.967Z,1.90
2022-09-06T19:49:14.866Z,1.95
2022-09-06T19:51:43.867Z,1.67
2022-09-06T19:54:14.554Z,1.45
2022-09-06T19:56:43.624Z,1.88
2022-09-06T19:59:12.270Z,1.80
2022-09-06T20:01:42.475Z,2.30
2022-09-06T20:04:12.174Z,1.77
2022-09-06T20:06:40.310Z,1.67
2022-09-06T20:09:10.142Z,1.63
2022-09-06T20:11:40.697Z,1.85
2022-09-06T20:14:09.664Z,1.73
2022-09-06T20:16:41.446Z,1.70
2022-09-06T20:19:10.128Z,1.35
2022-09-06T20:21:38.194Z,1.60
2022-09-06T20:24:06.543Z,1.48
2022-09-06T20:26:34.591Z,1.75
2022-09-06T20:29:06.506Z,1.50
2022-09-06T20:31:36.406Z,1.42
2022-09-06T20:34:05.729Z,1.92
2022-09-06T20:36:33.892Z,1.70
2022-09-06T20:39:02.099Z,1.50
2022-09-06T20:41:30.621Z,1.95
2022-09-06T20:44:00.356Z,1.65
2022-09-06T20:46:32.123Z,1.77
2022-09-06T20:49:04.121Z,1.60
2022-09-06T20:51:33.699Z,1.30
2022-09-06T20:54:02.938Z,1.48
2022-09-06T20:56:33.164Z,1.60
2022-09-06T20:59:03.012Z,1.95
2022-09-06T21:01:35.152Z,1.45
2022-09-06T21:04:05.484Z,1.77
2022-09-06T21:06:35.523Z,1.55
2022-09-06T21:09:04.292Z,1.33
2022-09-06T21:11:32.955Z,1.75
2022-09-06T21:14:01.238Z,1.55
2022-09-06T21:16:30.216Z,1.40
2022-09-06T21:19:01.071Z,1.40
2022-09-06T21:21:31.247Z,1.33
2022-09-06T21:24:00.794Z,1.20
2022-09-06T21:26:28.898Z,1.40
2022-09-06T21:28:56.918Z,1.33
2022-09-06T21:31:26.792Z,1.55
2022-09-06T21:33:57.056Z,1.42
2022-09-06T21:36:29.262Z,1.30
2022-09-06T21:39:00.136Z,1.40
2022-09-06T21:41:29.195Z,1.48
2022-09-06T21:43:59.234Z,1.20
2022-09-06T21:46:32.690Z,1.00
2022-09-06T21:49:02.772Z,1.60
2022-09-06T21:51:32.697Z,1.30
2022-09-06T21:54:03.435Z,1.38
2022-09-06T21:56:32.282Z,1.20
2022-09-06T21:59:00.598Z,1.40
2022-09-06T22:01:31.584Z,1.25
2022-09-06T22:03:59.856Z,1.40
2022-09-06T22:06:29.740Z,1.10
2022-09-06T22:09:01.113Z,1.50
2022-09-06T22:11:31.160Z,1.10
2022-09-06T22:14:00.043Z,1.30
2022-09-06T22:16:28.602Z,1.30
2022-09-06T22:18:56.812Z,1.25
2022-09-06T22:21:25.151Z,1.17
2022-09-06T22:23:54.025Z,1.20
2022-09-06T22:26:24.740Z,1.42
2022-09-06T22:28:55.185Z,1.02
2022-09-06T22:31:24.389Z,1.20
2022-09-06T22:33:52.619Z,0.95
2022-09-06T22:36:20.863Z,1.30
2022-09-06T22:38:48.890Z,0.90
2022-09-06T22:41:16.893Z,1.30
2022-09-06T22:43:46.415Z,1.00
2022-09-06T22:46:14.592Z,1.10
2022-09-06T22:48:42.675Z,1.23
2022-09-06T22:51:10.685Z,0.85
2022-09-06T22:53:38.785Z,1.23
2022-09-06T22:56:07.027Z,1.10
2022-09-06T22:58:35.886Z,1.00
2022-09-06T23:01:10.399Z,1.10
2022-09-06T23:03:39.235Z,0.93
2022-09-06T23:06:07.455Z,1.00
2022-09-06T23:08:37.410Z,1.05
2022-09-06T23:11:07.955Z,1.10
2022-09-06T23:13:36.182Z,1.10
2022-09-06T23:16:06.384Z,1.10
2022-09-06T23:18:36.122Z,0.90
2022-09-06T23:21:08.510Z,1.17
2022-09-06T23:23:38.247Z,1.20
2022-09-06T23:26:08.247Z,0.98
2022-09-06T23:28:37.122Z,1.10
2022-09-06T23:31:05.863Z,1.00
2022-09-06T23:33:36.211Z,1.10
2022-09-06T23:36:05.335Z,0.90
2022-09-06T23:38:34.054Z,1.20
2022-09-06T23:41:02.642Z,0.98
2022-09-06T23:43:31.095Z,0.90
2022-09-06T23:45:59.298Z,1.00
2022-09-06T23:48:27.471Z,1.38
2022-09-06T23:50:56.949Z,0.85
2022-09-06T23:53:25.038Z,0.90
2022-09-06T23:55:53.274Z,0.85
2022-09-06T23:58:21.457Z,1.00
